Terminal Aerodrome Forecast
Issued by NWS Wichita, KS

Home | Current Version | Previous Version | Text Only | Print | Product List | Glossary On
Versions: 1 2 3 4 5 6 7 8 9 10 11 12 13
202
FTUS43 KICT 140523
TAFICT
TAF
KICT 140523Z 1406/1506 35008KT P6SM FEW250
     FM142000 33007KT P6SM BKN110
     FM150000 VRB03KT P6SM BKN070
     FM150500 33006KT P6SM SCT090=

USA.gov is the U.S. government's official web portal to all federal, state and local government web resources and services.